createdAt,value
2018-04-14T00:04:51.151Z,5.60
2018-04-14T00:09:54.480Z,4.70
2018-04-14T00:14:57.561Z,3.77
2018-04-14T00:20:00.434Z,4.13
2018-04-14T00:25:04.132Z,5.03
2018-04-14T00:30:07.951Z,4.90
2018-04-14T00:35:11.703Z,5.30
2018-04-14T00:40:14.850Z,4.37
2018-04-14T00:45:17.654Z,4.30
2018-04-14T00:50:20.560Z,6.20
2018-04-14T00:55:23.699Z,3.90
2018-04-14T01:00:26.529Z,4.53
2018-04-14T01:05:29.329Z,30.70
2018-04-14T01:10:32.285Z,9.17
2018-04-14T01:15:35.474Z,34.60
2018-04-14T01:20:39.436Z,40.43
2018-04-14T01:25:42.467Z,10.60
2018-04-14T01:30:45.711Z,23.67
2018-04-14T01:35:48.653Z,19.43
2018-04-14T01:40:52.037Z,12.27
2018-04-14T01:45:55.371Z,18.23
2018-04-14T01:50:58.892Z,11.87
2018-04-14T01:56:02.874Z,21.03
2018-04-14T02:01:05.694Z,11.80
2018-04-14T02:06:08.415Z,8.70
2018-04-14T02:11:11.453Z,4.53
2018-04-14T02:16:14.440Z,5.83
2018-04-14T02:26:25.015Z,5.63
2018-04-14T02:31:28.311Z,6.47
2018-04-14T02:36:31.731Z,6.30
2018-04-14T02:41:34.823Z,13.30
2018-04-14T02:46:37.580Z,6.73
2018-04-14T02:51:41.378Z,8.57
2018-04-14T02:56:45.241Z,6.40
2018-04-14T03:01:48.786Z,5.50
2018-04-14T03:06:52.375Z,7.40
2018-04-14T03:11:55.699Z,9.37
2018-04-14T03:16:58.727Z,10.20
2018-04-14T03:22:02.301Z,10.37
2018-04-14T03:27:05.351Z,12.50
2018-04-14T03:32:09.022Z,8.63
2018-04-14T03:37:11.685Z,11.77
2018-04-14T03:42:14.414Z,10.20
2018-04-14T03:47:17.404Z,13.87
2018-04-14T03:52:20.439Z,11.73
2018-04-14T03:57:23.587Z,12.67
2018-04-14T04:02:26.375Z,13.60
2018-04-14T04:07:29.377Z,17.90
2018-04-14T04:12:32.221Z,15.17
2018-04-14T04:17:35.456Z,11.80
2018-04-14T04:22:49.904Z,17.97
2018-04-14T04:27:53.544Z,21.37
2018-04-14T04:32:56.833Z,15.90
2018-04-14T04:38:00.044Z,18.57
2018-04-14T04:43:02.896Z,18.80
2018-04-14T04:48:05.968Z,18.10
2018-04-14T04:53:08.984Z,22.23
2018-04-14T04:58:11.865Z,20.93
2018-04-14T05:03:15.515Z,17.17
2018-04-14T05:08:19.133Z,21.10
2018-04-14T05:13:22.287Z,21.70
2018-04-14T05:18:25.114Z,21.90
2018-04-14T05:23:29.269Z,21.40
2018-04-14T05:28:33.186Z,23.00
2018-04-14T05:33:36.257Z,19.93
2018-04-14T05:38:42.471Z,18.77
2018-04-14T05:43:45.252Z,28.93
2018-04-14T05:48:48.832Z,22.23
2018-04-14T05:53:52.687Z,20.00
2018-04-14T05:58:55.382Z,20.90
2018-04-14T06:03:58.152Z,17.87
2018-04-14T06:09:01.199Z,22.53
2018-04-14T06:14:04.233Z,21.80
2018-04-14T06:19:07.637Z,17.83
2018-04-14T06:24:10.230Z,24.10
2018-04-14T06:29:13.076Z,22.10
2018-04-14T06:34:15.842Z,26.97
2018-04-14T06:39:18.706Z,22.70
2018-04-14T06:44:21.416Z,23.13
2018-04-14T06:49:24.294Z,22.13
2018-04-14T06:54:27.108Z,20.37
2018-04-14T06:59:30.159Z,20.10
2018-04-14T07:04:33.708Z,23.57
2018-04-14T07:09:37.918Z,23.70
2018-04-14T07:14:40.588Z,21.60
2018-04-14T07:19:46.740Z,23.13
2018-04-14T07:24:50.003Z,21.97
2018-04-14T07:29:54.588Z,19.17
2018-04-14T07:34:57.851Z,20.03
2018-04-14T07:40:00.922Z,14.30
2018-04-14T07:45:03.890Z,19.20
2018-04-14T07:50:07.228Z,18.03
2018-04-14T07:55:09.991Z,22.20
2018-04-14T08:00:12.787Z,18.90
2018-04-14T08:05:15.574Z,18.00
2018-04-14T08:10:18.389Z,16.87
2018-04-14T08:15:21.149Z,17.67
2018-04-14T08:20:24.417Z,17.90
2018-04-14T08:25:27.142Z,17.20
2018-04-14T08:30:30.033Z,17.10
2018-04-14T08:35:35.180Z,19.90
2018-04-14T08:40:37.868Z,18.20
2018-04-14T08:45:40.512Z,22.40
2018-04-14T08:50:43.249Z,21.27
2018-04-14T08:55:46.252Z,19.67
2018-04-14T09:00:49.131Z,20.40
2018-04-14T09:05:53.414Z,14.87
2018-04-14T09:10:57.134Z,16.23
2018-04-14T09:16:00.725Z,16.17
2018-04-14T09:21:03.776Z,16.37
2018-04-14T09:26:07.350Z,16.57
2018-04-14T09:31:11.809Z,21.30
2018-04-14T09:36:15.851Z,18.07
2018-04-14T09:41:18.763Z,14.33
2018-04-14T09:46:21.527Z,15.63
2018-04-14T09:51:24.347Z,16.20
2018-04-14T09:56:27.271Z,13.90
2018-04-14T10:01:29.957Z,16.90
2018-04-14T10:06:32.994Z,12.57
2018-04-14T10:11:35.940Z,11.93
2018-04-14T10:16:40.170Z,10.40
2018-04-14T10:21:43.397Z,9.50
2018-04-14T10:26:46.550Z,8.23
2018-04-14T10:31:49.735Z,9.50
2018-04-14T10:36:54.110Z,9.43
2018-04-14T10:41:57.173Z,7.73
2018-04-14T10:47:00.898Z,6.90
2018-04-14T10:52:03.991Z,6.33
2018-04-14T10:57:08.312Z,8.33
2018-04-14T11:02:11.846Z,6.10
2018-04-14T11:07:15.685Z,3.67
2018-04-14T11:12:19.354Z,3.30
2018-04-14T11:17:25.180Z,3.67
2018-04-14T11:22:29.870Z,4.03
2018-04-14T11:27:33.097Z,4.73
2018-04-14T11:32:37.590Z,2.70
2018-04-14T11:37:41.671Z,3.30
2018-04-14T11:42:44.903Z,4.03
2018-04-14T11:47:47.977Z,2.63
2018-04-14T11:52:50.779Z,5.57
2018-04-14T11:57:53.614Z,3.10
2018-04-14T12:02:57.007Z,4.60
2018-04-14T12:07:59.919Z,4.23
2018-04-14T12:13:02.662Z,4.80
2018-04-14T12:18:05.449Z,3.40
2018-04-14T12:23:08.220Z,3.63
2018-04-14T12:28:11.562Z,5.30
2018-04-14T12:33:14.286Z,2.80
2018-04-14T12:38:17.217Z,6.23
2018-04-14T12:43:20.141Z,2.67
2018-04-14T12:48:23.144Z,3.60
2018-04-14T12:53:26.044Z,2.53
2018-04-14T12:58:28.925Z,3.47
2018-04-14T13:03:31.657Z,3.17
2018-04-14T13:08:34.386Z,4.17
2018-04-14T13:13:37.136Z,5.67
2018-04-14T13:18:39.974Z,4.10
2018-04-14T13:23:42.750Z,3.97
2018-04-14T13:28:45.604Z,4.53
2018-04-14T13:33:49.225Z,3.97
2018-04-14T13:38:52.761Z,2.70
2018-04-14T13:43:56.667Z,4.20
2018-04-14T13:48:59.708Z,3.30
2018-04-14T13:54:02.458Z,3.47
2018-04-14T13:59:05.241Z,2.90
2018-04-14T14:04:08.046Z,3.33
2018-04-14T14:09:10.687Z,2.33
2018-04-14T14:14:13.371Z,3.10
2018-04-14T14:19:16.120Z,3.50
2018-04-14T14:24:18.935Z,3.37
2018-04-14T14:29:21.673Z,2.57
2018-04-14T14:34:24.305Z,2.93
2018-04-14T14:39:27.035Z,3.77
2018-04-14T14:44:29.654Z,3.50
2018-04-14T14:49:32.464Z,3.10
2018-04-14T14:54:35.394Z,7.43
2018-04-14T14:59:38.159Z,2.77
2018-04-14T15:04:40.895Z,4.60
2018-04-14T15:09:43.611Z,3.43
2018-04-14T15:14:46.725Z,3.63
2018-04-14T15:19:50.335Z,3.73
2018-04-14T15:24:53.525Z,3.40
2018-04-14T15:29:56.288Z,4.13
2018-04-14T15:34:59.097Z,3.40
2018-04-14T15:40:01.963Z,15.50
2018-04-14T15:45:04.967Z,4.20
2018-04-14T15:50:07.760Z,4.30
2018-04-14T15:55:10.940Z,3.57
2018-04-14T16:00:13.855Z,4.10
2018-04-14T16:05:17.577Z,5.60
2018-04-14T16:10:20.536Z,10.70
2018-04-14T16:15:23.207Z,5.00
2018-04-14T16:20:25.959Z,5.77
2018-04-14T16:25:28.899Z,4.80
2018-04-14T16:30:32.207Z,5.33
2018-04-14T16:35:34.914Z,5.60
2018-04-14T16:40:37.866Z,26.13
2018-04-14T16:45:40.593Z,5.07
2018-04-14T16:50:43.384Z,4.37
2018-04-14T16:55:46.464Z,6.57
2018-04-14T17:00:49.516Z,9.67
2018-04-14T17:05:52.510Z,6.27
2018-04-14T17:10:55.394Z,6.03
2018-04-14T17:15:58.119Z,6.80
2018-04-14T17:21:00.959Z,7.63
2018-04-14T17:26:04.260Z,7.20
2018-04-14T17:31:08.030Z,8.33
2018-04-14T17:36:10.667Z,6.80
2018-04-14T17:41:14.034Z,7.33
2018-04-14T17:46:16.987Z,6.20
2018-04-14T17:51:19.845Z,11.10
2018-04-14T17:56:22.689Z,11.03
2018-04-14T18:01:25.547Z,11.90
2018-04-14T18:06:28.979Z,16.83
2018-04-14T18:11:31.802Z,17.07
2018-04-14T18:16:34.403Z,11.20
2018-04-14T18:21:37.754Z,9.47
2018-04-14T18:26:40.997Z,9.80
2018-04-14T18:31:44.171Z,17.50
2018-04-14T18:36:47.141Z,24.70
2018-04-14T18:41:50.222Z,23.47
2018-04-14T18:46:52.924Z,10.43
2018-04-14T18:51:57.289Z,14.47
2018-04-14T18:57:00.210Z,31.13
2018-04-14T19:02:03.318Z,21.07
2018-04-14T19:07:06.421Z,12.63
2018-04-14T19:12:09.187Z,19.10
2018-04-14T19:17:12.220Z,12.77
2018-04-14T19:22:14.912Z,8.53
2018-04-14T19:27:18.135Z,10.00
2018-04-14T19:32:20.965Z,6.10
2018-04-14T19:37:23.748Z,6.47
2018-04-14T19:42:28.375Z,6.60
2018-04-14T19:47:32.210Z,9.77
2018-04-14T19:52:35.310Z,6.30
2018-04-14T19:57:39.548Z,16.43
2018-04-14T20:02:42.385Z,16.40
2018-04-14T20:07:49.749Z,16.70
2018-04-14T20:12:59.940Z,13.50
2018-04-14T20:18:02.934Z,18.10
2018-04-14T20:23:06.255Z,16.33
2018-04-14T20:28:09.281Z,15.90
2018-04-14T20:33:12.011Z,14.43
2018-04-14T20:38:14.878Z,17.67
2018-04-14T20:43:17.626Z,10.27
2018-04-14T20:48:20.529Z,8.17
2018-04-14T20:53:23.214Z,11.93
2018-04-14T20:58:25.889Z,6.73
2018-04-14T21:03:29.390Z,8.63
2018-04-14T21:08:32.844Z,6.67
2018-04-14T21:13:36.323Z,8.87
2018-04-14T21:18:39.991Z,6.20
2018-04-14T21:23:42.998Z,10.47
2018-04-14T21:28:46.186Z,6.03
2018-04-14T21:33:49.085Z,5.90
2018-04-14T21:38:52.122Z,7.10
2018-04-14T21:49:03.682Z,6.47
2018-04-14T21:54:07.302Z,8.50
2018-04-14T21:59:09.951Z,5.80
2018-04-14T22:04:13.407Z,5.03
2018-04-14T22:09:17.121Z,6.73
2018-04-14T22:14:31.948Z,6.27
2018-04-14T22:19:35.322Z,7.27
2018-04-14T22:24:39.238Z,5.70
2018-04-14T22:29:42.030Z,5.17
2018-04-14T22:34:44.864Z,7.17
2018-04-14T22:39:47.753Z,6.50
2018-04-14T22:44:51.261Z,7.53
2018-04-14T22:49:53.920Z,6.47
2018-04-14T22:54:56.742Z,5.13
2018-04-14T22:59:59.534Z,5.33
2018-04-14T23:05:02.460Z,5.80
2018-04-14T23:10:05.356Z,5.43
2018-04-14T23:15:08.137Z,6.03
2018-04-14T23:20:11.460Z,8.23
2018-04-14T23:25:14.855Z,6.00
2018-04-14T23:30:17.545Z,6.80
2018-04-14T23:35:20.461Z,12.53
2018-04-14T23:40:23.168Z,5.47
2018-04-14T23:45:25.994Z,13.13
2018-04-14T23:50:28.709Z,4.90
2018-04-14T23:55:31.456Z,4.63
